Blountville, TN

02 10, 2014 04:23 EDT (GMT -0400)
Virginia Highlands | Change Station
CLOSE
Current Station
Airport
Location: Abingdon,
Elevation: 2070 ft
Nearby Weather Stations

Elev 2070 ft 36.69 °N, 82.03 °W | Updated 8 minutes ago

Ясно
Ясно
57 °F
Feels Like 57 °F
N
5
Вятър Променлива Вятър from Източен

Днес
High -- | Low -- °F
--% Chance of Precip.
Yesterday
High -- | Low -- °F
Precip. -- инчове
7:25 AM 7:11 PM
Първа четвърт, 56% visible
Атм. налягане 30.09 инчове
Видимост 10.0 мили
Облаци Ясно
Точка на оросяване 55 °F
Влажност 93%
Rainfall 0.00 инчове
Snow Depth Not available.
УВ 0 out of 12
Pollen 4.10 out of 12
PM2.5 Умерен
Flu Activity Not available.
METAR KVJI 020815Z AUTO 10004KT 10SM CLR 14/13 A3009 RMK AO2 T01370126

More Conditions Fewer Conditions

Атм. налягане 30.09 инчове
Видимост 10.0 мили
Облаци Ясно
Точка на оросяване 55 °F
Влажност 93%
Rainfall 0.00 инчове
Snow Depth Not available.
УВ 0 out of 12
Pollen 4.10 out of 12
PM2.5 Умерен
Flu Activity Not available.
METAR KVJI 020815Z AUTO 10004KT 10SM CLR 14/13 A3009 RMK AO2 T01370126

More Conditions Fewer Conditions

10-Day Weather Forecast

Almanac

Астрономия

Oct. 02, 2014 Rise Set
Actual Time 7:25 AM EDT 7:11 PM EDT
Civil Twilight 6:59 AM EDT 7:37 PM EDT
Nautical Twilight 6:29 AM EDT 8:07 PM EDT
Astronomical Twilight 5:59 AM EDT 8:37 PM EDT
Moon 3:08 PM EDT 12:50 AM EDT
Length Of Visible Light 12h 37m
Продължителност на деня
11h 45m
Tomorrow will be 2m 18s shorter.
Първа четвърт, 56% of the Moon is Illuminated
Днес
Първа четвърт
Oct 8
Пълнолуние
Oct 15
Последна четвърт
Oct 23
New
Oct 30
Първа четвърт

Today's Extremes

State Highs State Lows

Community

WunderPhotos

Upload Photos

1,758,196 photos uploaded!

WunderBlogs® & News

By Dr. Jeff Masters
Director of Meteorology, Weather Underground
By Kari Strenfel
Meteorologist, Weather Underground
By Christopher C. Burt
Weather Historian, Weather Underground
October 2, 2014
October 2, 2014
October 2, 2014

Nearby

Качество на въздуха

  Качество на въздуха AQ Index Pollutant
Yesterday Умерен
PM2.5
Yesterday Добър
OZONE
Current Умерен
PM2.5
Четвъртък Умерен
PM2.5
Четвъртък Добър
OZONE

Snow Depth

Station Depth Elevation
No new snow has been reported.

Earthquake Activity

City Distance Mag. Time & Date
No recent earthquake activity has been reported nearby.
Minimum magnitude displayed is 2.5.

Coastal Water Temperatures

Град Температура
No Stations Reporting

Nearby Weather Stations